sensor_id;sensor_type;location;lat;lon;timestamp;P1;durP1;ratioP1;P2;durP2;ratioP2
4365;SDS011;2196;47.422;9.656;2023-07-02T00:01:50;7.07;;;5.17;;
4365;SDS011;2196;47.422;9.656;2023-07-02T00:04:17;4.73;;;4.53;;
4365;SDS011;2196;47.422;9.656;2023-07-02T00:06:44;4.93;;;4.53;;
4365;SDS011;2196;47.422;9.656;2023-07-02T00:09:11;6.33;;;5.73;;
4365;SDS011;2196;47.422;9.656;2023-07-02T00:11:41;5.17;;;4.80;;
4365;SDS011;2196;47.422;9.656;2023-07-02T00:14:09;5.07;;;4.73;;
4365;SDS011;2196;47.422;9.656;2023-07-02T00:16:37;6.07;;;4.77;;
4365;SDS011;2196;47.422;9.656;2023-07-02T00:19:05;5.47;;;5.07;;
4365;SDS011;2196;47.422;9.656;2023-07-02T00:21:32;5.00;;;4.70;;
4365;SDS011;2196;47.422;9.656;2023-07-02T00:24:02;4.90;;;4.50;;
4365;SDS011;2196;47.422;9.656;2023-07-02T00:26:29;5.93;;;5.20;;
4365;SDS011;2196;47.422;9.656;2023-07-02T00:28:58;6.53;;;6.07;;
4365;SDS011;2196;47.422;9.656;2023-07-02T00:31:25;6.50;;;5.23;;
4365;SDS011;2196;47.422;9.656;2023-07-02T00:33:52;5.80;;;5.37;;
4365;SDS011;2196;47.422;9.656;2023-07-02T00:36:19;5.80;;;5.30;;
4365;SDS011;2196;47.422;9.656;2023-07-02T00:38:46;5.43;;;5.03;;
4365;SDS011;2196;47.422;9.656;2023-07-02T00:41:14;5.47;;;5.07;;
4365;SDS011;2196;47.422;9.656;2023-07-02T00:43:41;5.73;;;5.10;;
4365;SDS011;2196;47.422;9.656;2023-07-02T00:46:12;5.77;;;5.27;;
4365;SDS011;2196;47.422;9.656;2023-07-02T00:48:42;4.93;;;4.67;;
4365;SDS011;2196;47.422;9.656;2023-07-02T00:51:10;5.97;;;5.47;;
4365;SDS011;2196;47.422;9.656;2023-07-02T00:53:39;4.20;;;3.90;;
4365;SDS011;2196;47.422;9.656;2023-07-02T00:56:06;5.00;;;4.60;;
4365;SDS011;2196;47.422;9.656;2023-07-02T00:58:33;5.00;;;4.60;;
4365;SDS011;2196;47.422;9.656;2023-07-02T01:01:04;4.27;;;3.87;;
4365;SDS011;2196;47.422;9.656;2023-07-02T01:03:34;3.80;;;3.60;;
4365;SDS011;2196;47.422;9.656;2023-07-02T01:06:02;4.33;;;3.97;;
4365;SDS011;2196;47.422;9.656;2023-07-02T01:08:29;3.83;;;3.63;;
4365;SDS011;2196;47.422;9.656;2023-07-02T01:10:56;4.03;;;3.57;;
4365;SDS011;2196;47.422;9.656;2023-07-02T01:13:24;3.80;;;3.50;;
4365;SDS011;2196;47.422;9.656;2023-07-02T01:15:52;4.33;;;4.03;;
4365;SDS011;2196;47.422;9.656;2023-07-02T01:18:19;4.40;;;4.00;;
4365;SDS011;2196;47.422;9.656;2023-07-02T01:20:48;3.90;;;3.60;;
4365;SDS011;2196;47.422;9.656;2023-07-02T01:23:15;3.83;;;3.63;;
4365;SDS011;2196;47.422;9.656;2023-07-02T01:25:42;5.50;;;5.07;;
4365;SDS011;2196;47.422;9.656;2023-07-02T01:28:10;4.57;;;4.27;;
4365;SDS011;2196;47.422;9.656;2023-07-02T01:30:39;4.80;;;4.50;;
4365;SDS011;2196;47.422;9.656;2023-07-02T01:33:06;5.47;;;5.07;;
4365;SDS011;2196;47.422;9.656;2023-07-02T01:35:33;5.23;;;4.90;;
4365;SDS011;2196;47.422;9.656;2023-07-02T01:38:01;4.83;;;4.53;;
4365;SDS011;2196;47.422;9.656;2023-07-02T01:40:29;4.10;;;3.90;;
4365;SDS011;2196;47.422;9.656;2023-07-02T01:42:56;4.77;;;4.37;;
4365;SDS011;2196;47.422;9.656;2023-07-02T01:45:22;4.87;;;4.47;;
4365;SDS011;2196;47.422;9.656;2023-07-02T01:47:50;5.13;;;4.27;;
4365;SDS011;2196;47.422;9.656;2023-07-02T01:50:17;4.13;;;3.83;;
4365;SDS011;2196;47.422;9.656;2023-07-02T01:52:44;4.20;;;3.90;;
4365;SDS011;2196;47.422;9.656;2023-07-02T01:55:12;4.23;;;4.03;;
4365;SDS011;2196;47.422;9.656;2023-07-02T01:57:39;4.00;;;3.73;;
4365;SDS011;2196;47.422;9.656;2023-07-02T02:00:07;3.90;;;3.67;;
4365;SDS011;2196;47.422;9.656;2023-07-02T02:02:35;3.93;;;3.63;;
4365;SDS011;2196;47.422;9.656;2023-07-02T02:05:02;3.53;;;3.33;;
4365;SDS011;2196;47.422;9.656;2023-07-02T02:07:29;3.90;;;3.77;;
4365;SDS011;2196;47.422;9.656;2023-07-02T02:09:56;4.70;;;4.43;;
4365;SDS011;2196;47.422;9.656;2023-07-02T02:12:24;3.53;;;3.23;;
4365;SDS011;2196;47.422;9.656;2023-07-02T02:14:53;4.20;;;3.87;;
4365;SDS011;2196;47.422;9.656;2023-07-02T02:17:20;3.37;;;3.17;;
4365;SDS011;2196;47.422;9.656;2023-07-02T02:19:48;3.67;;;3.47;;
4365;SDS011;2196;47.422;9.656;2023-07-02T02:22:15;3.73;;;3.50;;
4365;SDS011;2196;47.422;9.656;2023-07-02T02:24:42;4.40;;;4.10;;
4365;SDS011;2196;47.422;9.656;2023-07-02T02:27:09;3.73;;;3.43;;
4365;SDS011;2196;47.422;9.656;2023-07-02T02:29:38;3.90;;;3.67;;
4365;SDS011;2196;47.422;9.656;2023-07-02T02:32:05;4.57;;;4.20;;
4365;SDS011;2196;47.422;9.656;2023-07-02T02:34:32;4.10;;;3.80;;
4365;SDS011;2196;47.422;9.656;2023-07-02T02:36:59;3.73;;;3.50;;
4365;SDS011;2196;47.422;9.656;2023-07-02T02:39:26;3.47;;;3.37;;
4365;SDS011;2196;47.422;9.656;2023-07-02T02:41:53;3.47;;;3.23;;
4365;SDS011;2196;47.422;9.656;2023-07-02T02:44:20;4.43;;;4.07;;
4365;SDS011;2196;47.422;9.656;2023-07-02T02:46:48;4.23;;;4.03;;
4365;SDS011;2196;47.422;9.656;2023-07-02T02:49:15;4.33;;;3.97;;
4365;SDS011;2196;47.422;9.656;2023-07-02T02:51:42;4.70;;;4.40;;
4365;SDS011;2196;47.422;9.656;2023-07-02T02:54:09;5.60;;;5.03;;
4365;SDS011;2196;47.422;9.656;2023-07-02T02:56:36;5.67;;;4.90;;
4365;SDS011;2196;47.422;9.656;2023-07-02T02:59:03;5.30;;;4.97;;
4365;SDS011;2196;47.422;9.656;2023-07-02T03:01:30;7.70;;;5.00;;
4365;SDS011;2196;47.422;9.656;2023-07-02T03:03:59;5.67;;;5.17;;
4365;SDS011;2196;47.422;9.656;2023-07-02T03:06:26;5.00;;;4.70;;
4365;SDS011;2196;47.422;9.656;2023-07-02T03:08:53;6.00;;;5.60;;
4365;SDS011;2196;47.422;9.656;2023-07-02T03:11:20;5.13;;;4.80;;
4365;SDS011;2196;47.422;9.656;2023-07-02T03:13:46;6.10;;;5.70;;
4365;SDS011;2196;47.422;9.656;2023-07-02T03:16:13;6.27;;;5.70;;
4365;SDS011;2196;47.422;9.656;2023-07-02T03:18:40;5.47;;;5.13;;
4365;SDS011;2196;47.422;9.656;2023-07-02T03:21:09;6.50;;;6.10;;
4365;SDS011;2196;47.422;9.656;2023-07-02T03:23:36;6.50;;;5.87;;
4365;SDS011;2196;47.422;9.656;2023-07-02T03:26:03;6.60;;;6.20;;
4365;SDS011;2196;47.422;9.656;2023-07-02T03:28:30;6.20;;;5.53;;
4365;SDS011;2196;47.422;9.656;2023-07-02T03:30:59;6.67;;;6.07;;
4365;SDS011;2196;47.422;9.656;2023-07-02T03:33:26;6.67;;;6.07;;
4365;SDS011;2196;47.422;9.656;2023-07-02T03:35:52;4.60;;;4.40;;
4365;SDS011;2196;47.422;9.656;2023-07-02T03:38:21;4.03;;;3.90;;
4365;SDS011;2196;47.422;9.656;2023-07-02T03:40:48;4.07;;;3.87;;
4365;SDS011;2196;47.422;9.656;2023-07-02T03:43:15;5.00;;;4.70;;
4365;SDS011;2196;47.422;9.656;2023-07-02T03:45:42;4.97;;;4.67;;
4365;SDS011;2196;47.422;9.656;2023-07-02T03:48:09;5.23;;;4.93;;
4365;SDS011;2196;47.422;9.656;2023-07-02T03:50:36;5.40;;;5.10;;
4365;SDS011;2196;47.422;9.656;2023-07-02T03:53:03;5.10;;;4.80;;
4365;SDS011;2196;47.422;9.656;2023-07-02T03:55:31;4.10;;;3.90;;
4365;SDS011;2196;47.422;9.656;2023-07-02T03:57:58;4.20;;;4.00;;
4365;SDS011;2196;47.422;9.656;2023-07-02T04:00:25;4.33;;;4.13;;
4365;SDS011;2196;47.422;9.656;2023-07-02T04:02:52;3.80;;;3.60;;
4365;SDS011;2196;47.422;9.656;2023-07-02T04:05:19;4.33;;;4.03;;
4365;SDS011;2196;47.422;9.656;2023-07-02T04:07:46;3.40;;;3.30;;
4365;SDS011;2196;47.422;9.656;2023-07-02T04:10:13;4.30;;;4.00;;
4365;SDS011;2196;47.422;9.656;2023-07-02T04:12:41;4.17;;;3.87;;
4365;SDS011;2196;47.422;9.656;2023-07-02T04:15:09;3.40;;;3.20;;
4365;SDS011;2196;47.422;9.656;2023-07-02T04:17:36;3.30;;;3.10;;
4365;SDS011;2196;47.422;9.656;2023-07-02T04:20:04;3.33;;;3.13;;
4365;SDS011;2196;47.422;9.656;2023-07-02T04:22:32;4.00;;;3.70;;
4365;SDS011;2196;47.422;9.656;2023-07-02T04:25:03;4.40;;;4.10;;
4365;SDS011;2196;47.422;9.656;2023-07-02T04:27:30;3.83;;;3.53;;
4365;SDS011;2196;47.422;9.656;2023-07-02T04:29:59;4.70;;;4.40;;
4365;SDS011;2196;47.422;9.656;2023-07-02T04:32:26;3.93;;;3.53;;
4365;SDS011;2196;47.422;9.656;2023-07-02T04:34:55;3.87;;;3.57;;
4365;SDS011;2196;47.422;9.656;2023-07-02T04:37:23;3.93;;;3.77;;
4365;SDS011;2196;47.422;9.656;2023-07-02T04:39:50;3.43;;;3.27;;
4365;SDS011;2196;47.422;9.656;2023-07-02T04:42:17;3.80;;;3.60;;
4365;SDS011;2196;47.422;9.656;2023-07-02T04:44:44;5.47;;;3.67;;
4365;SDS011;2196;47.422;9.656;2023-07-02T04:47:12;4.90;;;4.50;;
4365;SDS011;2196;47.422;9.656;2023-07-02T04:49:39;3.83;;;3.47;;
4365;SDS011;2196;47.422;9.656;2023-07-02T04:52:06;3.27;;;3.07;;
4365;SDS011;2196;47.422;9.656;2023-07-02T04:54:33;3.27;;;3.07;;
4365;SDS011;2196;47.422;9.656;2023-07-02T04:57:00;3.63;;;3.30;;
4365;SDS011;2196;47.422;9.656;2023-07-02T04:59:27;3.87;;;3.57;;
4365;SDS011;2196;47.422;9.656;2023-07-02T05:01:54;3.40;;;3.23;;
4365;SDS011;2196;47.422;9.656;2023-07-02T05:04:22;3.57;;;3.37;;
4365;SDS011;2196;47.422;9.656;2023-07-02T05:06:49;4.37;;;4.03;;
4365;SDS011;2196;47.422;9.656;2023-07-02T05:09:16;3.67;;;3.43;;
4365;SDS011;2196;47.422;9.656;2023-07-02T05:11:43;4.53;;;4.23;;
4365;SDS011;2196;47.422;9.656;2023-07-02T05:14:10;5.80;;;4.73;;
4365;SDS011;2196;47.422;9.656;2023-07-02T05:16:37;6.20;;;5.60;;
4365;SDS011;2196;47.422;9.656;2023-07-02T05:19:04;5.80;;;5.20;;
4365;SDS011;2196;47.422;9.656;2023-07-02T05:21:32;6.67;;;6.00;;
4365;SDS011;2196;47.422;9.656;2023-07-02T05:23:59;6.63;;;6.10;;
4365;SDS011;2196;47.422;9.656;2023-07-02T05:26:26;8.47;;;5.90;;
4365;SDS011;2196;47.422;9.656;2023-07-02T05:28:53;9.77;;;7.70;;
4365;SDS011;2196;47.422;9.656;2023-07-02T05:31:20;7.50;;;6.90;;
4365;SDS011;2196;47.422;9.656;2023-07-02T05:33:47;9.27;;;8.37;;
4365;SDS011;2196;47.422;9.656;2023-07-02T05:36:14;11.07;;;9.57;;
4365;SDS011;2196;47.422;9.656;2023-07-02T05:38:42;10.77;;;9.17;;
4365;SDS011;2196;47.422;9.656;2023-07-02T05:41:09;11.33;;;9.50;;
4365;SDS011;2196;47.422;9.656;2023-07-02T05:43:36;14.60;;;12.10;;
4365;SDS011;2196;47.422;9.656;2023-07-02T05:46:03;16.53;;;12.57;;
4365;SDS011;2196;47.422;9.656;2023-07-02T05:48:30;19.03;;;12.30;;
4365;SDS011;2196;47.422;9.656;2023-07-02T05:50:57;16.50;;;12.20;;
4365;SDS011;2196;47.422;9.656;2023-07-02T05:53:24;15.63;;;12.03;;
4365;SDS011;2196;47.422;9.656;2023-07-02T05:55:53;17.73;;;12.63;;
4365;SDS011;2196;47.422;9.656;2023-07-02T05:58:19;17.63;;;12.43;;
4365;SDS011;2196;47.422;9.656;2023-07-02T06:00:46;20.47;;;13.40;;
4365;SDS011;2196;47.422;9.656;2023-07-02T06:03:15;20.03;;;12.60;;
4365;SDS011;2196;47.422;9.656;2023-07-02T06:05:45;16.20;;;12.80;;
4365;SDS011;2196;47.422;9.656;2023-07-02T06:08:13;14.20;;;11.57;;
4365;SDS011;2196;47.422;9.656;2023-07-02T06:10:41;13.07;;;11.03;;
4365;SDS011;2196;47.422;9.656;2023-07-02T06:13:09;14.87;;;11.87;;
4365;SDS011;2196;47.422;9.656;2023-07-02T06:15:36;14.73;;;11.57;;
4365;SDS011;2196;47.422;9.656;2023-07-02T06:18:03;12.77;;;10.60;;
4365;SDS011;2196;47.422;9.656;2023-07-02T06:20:30;11.50;;;10.30;;
4365;SDS011;2196;47.422;9.656;2023-07-02T06:22:57;12.73;;;10.53;;
4365;SDS011;2196;47.422;9.656;2023-07-02T06:25:24;18.13;;;11.50;;
4365;SDS011;2196;47.422;9.656;2023-07-02T06:27:51;16.03;;;11.20;;
4365;SDS011;2196;47.422;9.656;2023-07-02T06:30:22;11.40;;;9.40;;
4365;SDS011;2196;47.422;9.656;2023-07-02T06:32:49;12.77;;;10.33;;
4365;SDS011;2196;47.422;9.656;2023-07-02T06:35:16;13.27;;;9.57;;
4365;SDS011;2196;47.422;9.656;2023-07-02T06:37:44;10.93;;;9.57;;
4365;SDS011;2196;47.422;9.656;2023-07-02T06:40:11;14.03;;;10.27;;
4365;SDS011;2196;47.422;9.656;2023-07-02T06:42:39;14.73;;;10.63;;
4365;SDS011;2196;47.422;9.656;2023-07-02T06:45:07;13.47;;;10.00;;
4365;SDS011;2196;47.422;9.656;2023-07-02T06:47:35;13.33;;;9.80;;
4365;SDS011;2196;47.422;9.656;2023-07-02T06:50:02;11.40;;;10.20;;
4365;SDS011;2196;47.422;9.656;2023-07-02T06:52:30;12.07;;;9.73;;
4365;SDS011;2196;47.422;9.656;2023-07-02T06:55:01;13.37;;;10.93;;
4365;SDS011;2196;47.422;9.656;2023-07-02T06:57:29;11.57;;;9.83;;
4365;SDS011;2196;47.422;9.656;2023-07-02T06:59:57;12.27;;;9.47;;
4365;SDS011;2196;47.422;9.656;2023-07-02T07:02:25;9.50;;;8.60;;
4365;SDS011;2196;47.422;9.656;2023-07-02T07:04:57;10.23;;;9.13;;
4365;SDS011;2196;47.422;9.656;2023-07-02T07:07:25;10.07;;;8.50;;
4365;SDS011;2196;47.422;9.656;2023-07-02T07:09:53;10.57;;;9.27;;
4365;SDS011;2196;47.422;9.656;2023-07-02T07:12:26;8.83;;;7.53;;
4365;SDS011;2196;47.422;9.656;2023-07-02T07:14:54;9.97;;;9.00;;
4365;SDS011;2196;47.422;9.656;2023-07-02T07:17:22;10.50;;;9.43;;
4365;SDS011;2196;47.422;9.656;2023-07-02T07:19:49;12.23;;;9.27;;
4365;SDS011;2196;47.422;9.656;2023-07-02T07:22:17;11.03;;;9.87;;
4365;SDS011;2196;47.422;9.656;2023-07-02T07:24:44;12.53;;;9.20;;
4365;SDS011;2196;47.422;9.656;2023-07-02T07:27:11;11.30;;;8.53;;
4365;SDS011;2196;47.422;9.656;2023-07-02T07:29:38;10.53;;;8.87;;
4365;SDS011;2196;47.422;9.656;2023-07-02T07:32:06;8.30;;;7.47;;
4365;SDS011;2196;47.422;9.656;2023-07-02T07:34:33;8.27;;;7.43;;
4365;SDS011;2196;47.422;9.656;2023-07-02T07:37:00;9.87;;;7.90;;
4365;SDS011;2196;47.422;9.656;2023-07-02T07:39:29;14.10;;;8.33;;
4365;SDS011;2196;47.422;9.656;2023-07-02T07:41:56;8.67;;;7.63;;
4365;SDS011;2196;47.422;9.656;2023-07-02T07:44:24;7.63;;;6.87;;
4365;SDS011;2196;47.422;9.656;2023-07-02T07:46:54;8.10;;;7.33;;
4365;SDS011;2196;47.422;9.656;2023-07-02T07:49:21;9.73;;;7.73;;
4365;SDS011;2196;47.422;9.656;2023-07-02T07:51:49;8.90;;;7.97;;
4365;SDS011;2196;47.422;9.656;2023-07-02T07:54:17;13.23;;;8.07;;
4365;SDS011;2196;47.422;9.656;2023-07-02T07:56:45;7.97;;;7.17;;
4365;SDS011;2196;47.422;9.656;2023-07-02T07:59:13;10.27;;;7.47;;
4365;SDS011;2196;47.422;9.656;2023-07-02T08:01:40;10.57;;;8.87;;
4365;SDS011;2196;47.422;9.656;2023-07-02T08:04:07;10.70;;;8.93;;
4365;SDS011;2196;47.422;9.656;2023-07-02T08:06:34;11.13;;;9.97;;
4365;SDS011;2196;47.422;9.656;2023-07-02T08:09:00;12.93;;;8.47;;
4365;SDS011;2196;47.422;9.656;2023-07-02T08:11:28;9.83;;;8.80;;
4365;SDS011;2196;47.422;9.656;2023-07-02T08:13:56;13.40;;;9.10;;
4365;SDS011;2196;47.422;9.656;2023-07-02T08:16:23;14.13;;;10.40;;
4365;SDS011;2196;47.422;9.656;2023-07-02T08:18:50;10.00;;;8.60;;
4365;SDS011;2196;47.422;9.656;2023-07-02T08:21:17;10.20;;;9.10;;
4365;SDS011;2196;47.422;9.656;2023-07-02T08:23:44;12.50;;;9.00;;
4365;SDS011;2196;47.422;9.656;2023-07-02T08:26:11;12.77;;;9.27;;
4365;SDS011;2196;47.422;9.656;2023-07-02T08:28:39;10.43;;;8.87;;
4365;SDS011;2196;47.422;9.656;2023-07-02T08:31:07;10.93;;;9.50;;
4365;SDS011;2196;47.422;9.656;2023-07-02T08:33:34;11.83;;;9.20;;
4365;SDS011;2196;47.422;9.656;2023-07-02T08:36:01;12.03;;;9.60;;
4365;SDS011;2196;47.422;9.656;2023-07-02T08:38:28;11.20;;;8.57;;
4365;SDS011;2196;47.422;9.656;2023-07-02T08:40:55;12.30;;;9.73;;
4365;SDS011;2196;47.422;9.656;2023-07-02T08:43:23;12.43;;;8.83;;
4365;SDS011;2196;47.422;9.656;2023-07-02T08:45:52;11.17;;;8.63;;
4365;SDS011;2196;47.422;9.656;2023-07-02T08:48:21;8.87;;;8.07;;
4365;SDS011;2196;47.422;9.656;2023-07-02T08:50:49;8.90;;;7.90;;
4365;SDS011;2196;47.422;9.656;2023-07-02T08:53:16;8.03;;;7.23;;
4365;SDS011;2196;47.422;9.656;2023-07-02T08:55:43;7.63;;;6.57;;
4365;SDS011;2196;47.422;9.656;2023-07-02T08:58:10;7.33;;;6.63;;
4365;SDS011;2196;47.422;9.656;2023-07-02T09:00:37;9.20;;;8.10;;
4365;SDS011;2196;47.422;9.656;2023-07-02T09:03:11;7.23;;;6.63;;
4365;SDS011;2196;47.422;9.656;2023-07-02T09:05:48;10.57;;;7.53;;
4365;SDS011;2196;47.422;9.656;2023-07-02T09:08:26;12.53;;;8.87;;
4365;SDS011;2196;47.422;9.656;2023-07-02T09:10:54;11.27;;;9.03;;
4365;SDS011;2196;47.422;9.656;2023-07-02T09:13:31;13.17;;;10.10;;
4365;SDS011;2196;47.422;9.656;2023-07-02T09:15:58;15.27;;;11.07;;
4365;SDS011;2196;47.422;9.656;2023-07-02T09:18:25;13.17;;;10.07;;
4365;SDS011;2196;47.422;9.656;2023-07-02T09:20:55;12.17;;;9.40;;
4365;SDS011;2196;47.422;9.656;2023-07-02T09:23:22;16.17;;;10.80;;
4365;SDS011;2196;47.422;9.656;2023-07-02T09:25:49;15.37;;;11.37;;
4365;SDS011;2196;47.422;9.656;2023-07-02T09:28:17;17.00;;;11.27;;
4365;SDS011;2196;47.422;9.656;2023-07-02T09:30:48;12.30;;;10.60;;
4365;SDS011;2196;47.422;9.656;2023-07-02T09:33:16;12.00;;;10.77;;
4365;SDS011;2196;47.422;9.656;2023-07-02T09:35:44;13.27;;;10.40;;
4365;SDS011;2196;47.422;9.656;2023-07-02T09:38:12;15.17;;;11.27;;
4365;SDS011;2196;47.422;9.656;2023-07-02T09:40:44;12.43;;;10.83;;
4365;SDS011;2196;47.422;9.656;2023-07-02T09:43:13;13.67;;;10.53;;
4365;SDS011;2196;47.422;9.656;2023-07-02T09:45:41;10.37;;;9.37;;
4365;SDS011;2196;47.422;9.656;2023-07-02T09:48:11;12.63;;;9.57;;
4365;SDS011;2196;47.422;9.656;2023-07-02T09:50:40;10.00;;;8.97;;
4365;SDS011;2196;47.422;9.656;2023-07-02T09:53:08;12.80;;;9.13;;
4365;SDS011;2196;47.422;9.656;2023-07-02T09:55:37;11.13;;;9.33;;
4365;SDS011;2196;47.422;9.656;2023-07-02T09:58:05;10.87;;;8.80;;
4365;SDS011;2196;47.422;9.656;2023-07-02T10:00:32;14.20;;;9.10;;
4365;SDS011;2196;47.422;9.656;2023-07-02T10:02:59;11.00;;;8.47;;
4365;SDS011;2196;47.422;9.656;2023-07-02T10:05:27;17.90;;;11.20;;
4365;SDS011;2196;47.422;9.656;2023-07-02T10:07:55;10.13;;;9.13;;
4365;SDS011;2196;47.422;9.656;2023-07-02T10:10:26;11.80;;;8.80;;
4365;SDS011;2196;47.422;9.656;2023-07-02T10:12:55;11.87;;;10.23;;
4365;SDS011;2196;47.422;9.656;2023-07-02T10:15:26;10.27;;;8.60;;
4365;SDS011;2196;47.422;9.656;2023-07-02T10:17:55;12.70;;;10.57;;
4365;SDS011;2196;47.422;9.656;2023-07-02T10:20:31;13.83;;;9.37;;
4365;SDS011;2196;47.422;9.656;2023-07-02T10:22:58;12.53;;;8.97;;
4365;SDS011;2196;47.422;9.656;2023-07-02T10:25:27;14.57;;;9.10;;
4365;SDS011;2196;47.422;9.656;2023-07-02T10:27:57;12.63;;;10.60;;
4365;SDS011;2196;47.422;9.656;2023-07-02T10:30:31;12.27;;;10.87;;
4365;SDS011;2196;47.422;9.656;2023-07-02T10:33:09;19.80;;;11.37;;
4365;SDS011;2196;47.422;9.656;2023-07-02T10:35:37;11.00;;;9.37;;
4365;SDS011;2196;47.422;9.656;2023-07-02T10:38:06;12.87;;;10.93;;
4365;SDS011;2196;47.422;9.656;2023-07-02T10:40:33;14.63;;;12.00;;
4365;SDS011;2196;47.422;9.656;2023-07-02T10:43:01;13.43;;;11.23;;
4365;SDS011;2196;47.422;9.656;2023-07-02T10:45:31;14.83;;;12.63;;
4365;SDS011;2196;47.422;9.656;2023-07-02T10:48:01;17.00;;;13.30;;
4365;SDS011;2196;47.422;9.656;2023-07-02T10:50:29;17.73;;;12.03;;
4365;SDS011;2196;47.422;9.656;2023-07-02T10:52:57;16.83;;;13.67;;
4365;SDS011;2196;47.422;9.656;2023-07-02T10:55:24;17.87;;;12.60;;
4365;SDS011;2196;47.422;9.656;2023-07-02T10:58:03;18.03;;;13.40;;
4365;SDS011;2196;47.422;9.656;2023-07-02T11:00:32;19.00;;;14.20;;
4365;SDS011;2196;47.422;9.656;2023-07-02T11:02:59;18.83;;;14.83;;
4365;SDS011;2196;47.422;9.656;2023-07-02T11:05:26;23.33;;;14.57;;
4365;SDS011;2196;47.422;9.656;2023-07-02T11:07:53;15.80;;;12.93;;
4365;SDS011;2196;47.422;9.656;2023-07-02T11:10:22;19.13;;;15.53;;
4365;SDS011;2196;47.422;9.656;2023-07-02T11:12:50;22.47;;;12.53;;
4365;SDS011;2196;47.422;9.656;2023-07-02T11:15:19;19.90;;;13.77;;
4365;SDS011;2196;47.422;9.656;2023-07-02T11:17:46;13.37;;;11.47;;
4365;SDS011;2196;47.422;9.656;2023-07-02T11:20:13;13.47;;;11.43;;
4365;SDS011;2196;47.422;9.656;2023-07-02T11:22:41;15.67;;;12.27;;
4365;SDS011;2196;47.422;9.656;2023-07-02T11:25:09;13.17;;;11.43;;
4365;SDS011;2196;47.422;9.656;2023-07-02T11:27:38;13.63;;;11.30;;
4365;SDS011;2196;47.422;9.656;2023-07-02T11:30:05;16.97;;;13.10;;
4365;SDS011;2196;47.422;9.656;2023-07-02T11:32:46;14.97;;;11.43;;
4365;SDS011;2196;47.422;9.656;2023-07-02T11:35:15;11.73;;;10.40;;
4365;SDS011;2196;47.422;9.656;2023-07-02T11:37:42;12.77;;;10.70;;
4365;SDS011;2196;47.422;9.656;2023-07-02T11:40:10;19.60;;;11.10;;
4365;SDS011;2196;47.422;9.656;2023-07-02T11:42:38;14.80;;;12.67;;
4365;SDS011;2196;47.422;9.656;2023-07-02T11:45:05;19.20;;;13.20;;
4365;SDS011;2196;47.422;9.656;2023-07-02T11:47:33;19.13;;;11.97;;
4365;SDS011;2196;47.422;9.656;2023-07-02T11:50:01;13.87;;;10.97;;
4365;SDS011;2196;47.422;9.656;2023-07-02T11:52:29;14.57;;;10.67;;
4365;SDS011;2196;47.422;9.656;2023-07-02T11:54:56;16.90;;;11.53;;
4365;SDS011;2196;47.422;9.656;2023-07-02T11:57:23;14.27;;;10.80;;
4365;SDS011;2196;47.422;9.656;2023-07-02T11:59:50;12.03;;;10.07;;
4365;SDS011;2196;47.422;9.656;2023-07-02T12:02:17;13.27;;;10.90;;
4365;SDS011;2196;47.422;9.656;2023-07-02T12:04:45;13.57;;;11.43;;
4365;SDS011;2196;47.422;9.656;2023-07-02T12:07:13;10.40;;;9.40;;
4365;SDS011;2196;47.422;9.656;2023-07-02T12:09:40;13.10;;;9.83;;
4365;SDS011;2196;47.422;9.656;2023-07-02T12:12:07;10.30;;;9.27;;
4365;SDS011;2196;47.422;9.656;2023-07-02T12:14:34;11.77;;;9.40;;
4365;SDS011;2196;47.422;9.656;2023-07-02T12:17:02;14.30;;;9.40;;
4365;SDS011;2196;47.422;9.656;2023-07-02T12:19:29;11.43;;;9.03;;
4365;SDS011;2196;47.422;9.656;2023-07-02T12:21:56;10.40;;;8.60;;
4365;SDS011;2196;47.422;9.656;2023-07-02T12:24:25;9.73;;;8.83;;
4365;SDS011;2196;47.422;9.656;2023-07-02T12:26:52;10.00;;;9.00;;
4365;SDS011;2196;47.422;9.656;2023-07-02T12:29:19;9.47;;;8.50;;
4365;SDS011;2196;47.422;9.656;2023-07-02T12:31:45;9.53;;;7.70;;
4365;SDS011;2196;47.422;9.656;2023-07-02T12:34:12;9.90;;;8.90;;
4365;SDS011;2196;47.422;9.656;2023-07-02T12:36:40;8.27;;;7.47;;
4365;SDS011;2196;47.422;9.656;2023-07-02T12:39:07;12.30;;;8.13;;
4365;SDS011;2196;47.422;9.656;2023-07-02T12:41:35;9.70;;;8.67;;
4365;SDS011;2196;47.422;9.656;2023-07-02T12:44:02;8.87;;;6.80;;
4365;SDS011;2196;47.422;9.656;2023-07-02T12:46:29;9.97;;;8.27;;
4365;SDS011;2196;47.422;9.656;2023-07-02T12:48:56;9.87;;;8.87;;
4365;SDS011;2196;47.422;9.656;2023-07-02T12:51:23;11.70;;;10.57;;
4365;SDS011;2196;47.422;9.656;2023-07-02T12:53:50;10.50;;;9.47;;
4365;SDS011;2196;47.422;9.656;2023-07-02T12:56:17;8.50;;;7.70;;
4365;SDS011;2196;47.422;9.656;2023-07-02T12:58:45;8.67;;;7.80;;
4365;SDS011;2196;47.422;9.656;2023-07-02T13:01:13;8.93;;;8.03;;
4365;SDS011;2196;47.422;9.656;2023-07-02T13:03:44;9.40;;;8.60;;
4365;SDS011;2196;47.422;9.656;2023-07-02T13:06:12;13.57;;;9.87;;
4365;SDS011;2196;47.422;9.656;2023-07-02T13:08:39;8.83;;;7.93;;
4365;SDS011;2196;47.422;9.656;2023-07-02T13:11:06;10.73;;;8.97;;
4365;SDS011;2196;47.422;9.656;2023-07-02T13:13:34;9.50;;;8.60;;
4365;SDS011;2196;47.422;9.656;2023-07-02T13:16:03;10.83;;;9.73;;
4365;SDS011;2196;47.422;9.656;2023-07-02T13:18:31;8.60;;;7.80;;
4365;SDS011;2196;47.422;9.656;2023-07-02T13:20:57;9.47;;;8.47;;
4365;SDS011;2196;47.422;9.656;2023-07-02T13:23:24;10.03;;;9.20;;
4365;SDS011;2196;47.422;9.656;2023-07-02T13:25:51;8.23;;;7.53;;
4365;SDS011;2196;47.422;9.656;2023-07-02T13:28:18;11.17;;;9.37;;
4365;SDS011;2196;47.422;9.656;2023-07-02T13:30:46;11.10;;;10.07;;
4365;SDS011;2196;47.422;9.656;2023-07-02T13:33:15;8.87;;;8.07;;
4365;SDS011;2196;47.422;9.656;2023-07-02T13:35:42;11.83;;;9.13;;
4365;SDS011;2196;47.422;9.656;2023-07-02T13:38:10;15.23;;;9.43;;
4365;SDS011;2196;47.422;9.656;2023-07-02T13:40:37;8.53;;;7.80;;
4365;SDS011;2196;47.422;9.656;2023-07-02T13:43:04;9.53;;;8.43;;
4365;SDS011;2196;47.422;9.656;2023-07-02T13:45:31;10.67;;;9.60;;
4365;SDS011;2196;47.422;9.656;2023-07-02T13:47:58;13.07;;;11.77;;
4365;SDS011;2196;47.422;9.656;2023-07-02T13:50:26;10.33;;;8.63;;
4365;SDS011;2196;47.422;9.656;2023-07-02T13:52:53;9.20;;;8.40;;
4365;SDS011;2196;47.422;9.656;2023-07-02T13:55:20;8.30;;;7.50;;
4365;SDS011;2196;47.422;9.656;2023-07-02T13:57:53;9.37;;;8.30;;
4365;SDS011;2196;47.422;9.656;2023-07-02T14:00:22;8.77;;;7.97;;
4365;SDS011;2196;47.422;9.656;2023-07-02T14:02:49;10.00;;;9.00;;
4365;SDS011;2196;47.422;9.656;2023-07-02T14:05:16;10.37;;;9.37;;
4365;SDS011;2196;47.422;9.656;2023-07-02T14:07:43;10.40;;;9.33;;
4365;SDS011;2196;47.422;9.656;2023-07-02T14:10:10;10.70;;;9.70;;
4365;SDS011;2196;47.422;9.656;2023-07-02T14:12:38;9.33;;;8.33;;
4365;SDS011;2196;47.422;9.656;2023-07-02T14:15:06;8.70;;;7.90;;
4365;SDS011;2196;47.422;9.656;2023-07-02T14:17:35;8.10;;;7.27;;
4365;SDS011;2196;47.422;9.656;2023-07-02T14:20:02;17.50;;;15.70;;
4365;SDS011;2196;47.422;9.656;2023-07-02T14:22:31;11.83;;;8.53;;
4365;SDS011;2196;47.422;9.656;2023-07-02T14:24:57;23.77;;;21.43;;
4365;SDS011;2196;47.422;9.656;2023-07-02T14:27:24;13.33;;;11.37;;
4365;SDS011;2196;47.422;9.656;2023-07-02T14:29:51;10.93;;;9.83;;
4365;SDS011;2196;47.422;9.656;2023-07-02T14:32:18;11.00;;;9.97;;
4365;SDS011;2196;47.422;9.656;2023-07-02T14:34:47;11.10;;;9.33;;
4365;SDS011;2196;47.422;9.656;2023-07-02T14:37:14;9.00;;;8.07;;
4365;SDS011;2196;47.422;9.656;2023-07-02T14:39:41;13.33;;;12.03;;
4365;SDS011;2196;47.422;9.656;2023-07-02T14:42:08;9.73;;;8.53;;
4365;SDS011;2196;47.422;9.656;2023-07-02T14:44:35;9.47;;;8.13;;
4365;SDS011;2196;47.422;9.656;2023-07-02T14:47:02;11.50;;;8.90;;
4365;SDS011;2196;47.422;9.656;2023-07-02T14:49:29;12.43;;;10.30;;
4365;SDS011;2196;47.422;9.656;2023-07-02T14:51:57;11.07;;;9.97;;
4365;SDS011;2196;47.422;9.656;2023-07-02T14:54:24;10.90;;;9.90;;
4365;SDS011;2196;47.422;9.656;2023-07-02T14:56:51;12.47;;;9.33;;
4365;SDS011;2196;47.422;9.656;2023-07-02T14:59:18;9.90;;;8.67;;
4365;SDS011;2196;47.422;9.656;2023-07-02T15:01:45;10.80;;;8.93;;
4365;SDS011;2196;47.422;9.656;2023-07-02T15:04:11;8.10;;;7.40;;
4365;SDS011;2196;47.422;9.656;2023-07-02T15:06:38;10.60;;;8.47;;
4365;SDS011;2196;47.422;9.656;2023-07-02T15:09:07;9.67;;;8.67;;